Time;durP1;ratioP1;P1;durP2;ratioP2;P2;SDS_P1;SDS_P2;PMS_P1;PMS_P2;Temp;Humidity;BMP_temperature;BMP_pressure;BME280_temperature;BME280_humidity;BME280_pressure;Samples;Min_cycle;Max_cycle;Signal;HPM_P1;HPM_P2
2022/09/23 00:00:45;;;;;;;;;;;9.60;99.90;;;;;;5070333;28;19928;-79
2022/09/23 00:03:11;;;;;;;;;;;9.70;99.90;;;;;;5035656;28;19921;-79
2022/09/23 00:05:39;;;;;;;;;;;9.70;99.90;;;;;;5035877;28;19921;-79
2022/09/23 00:08:05;;;;;;;;;;;9.60;99.90;;;;;;5036133;28;19921;-79
2022/09/23 00:10:31;;;;;;;;;;;9.50;99.90;;;;;;5052441;28;20284;-79
2022/09/23 00:12:57;;;;;;;;;;;9.50;99.90;;;;;;5035483;28;19921;-79
2022/09/23 00:15:24;;;;;;;;;;;9.50;99.90;;;;;;5019273;28;19928;-79
2022/09/23 00:17:50;;;;;;;;;;;9.50;99.90;;;;;;5035584;28;19983;-79
2022/09/23 00:20:16;;;;;;;;;;;9.50;99.90;;;;;;5068942;28;19921;-79
2022/09/23 00:22:41;;;;;;;;;;;9.50;99.90;;;;;;5052043;28;19980;-79
2022/09/23 00:25:08;;;;;;;;;;;9.50;99.90;;;;;;5068960;28;19972;-79
2022/09/23 00:27:34;;;;;;;;;;;9.40;99.90;;;;;;5019059;28;19920;-79
2022/09/23 00:29:59;;;;;;;;;;;9.50;99.90;;;;;;5052029;28;20276;-79
2022/09/23 00:32:25;;;;;;;;;;;9.40;99.90;;;;;;5052805;28;20013;-79
2022/09/23 00:34:51;;;;;;;;;;;9.40;99.90;;;;;;5035928;28;19928;-79
2022/09/23 00:37:17;;;;;;;;;;;9.40;99.90;;;;;;5068788;28;19960;-79
2022/09/23 00:39:44;;;;;;;;;;;9.40;99.90;;;;;;5052010;28;19921;-79
2022/09/23 00:42:15;;;;;;;;;;;9.30;99.90;;;;;;5035529;28;19972;-79
2022/09/23 00:44:48;;;;;;;;;;;9.30;99.90;;;;;;5051580;28;20003;-79
2022/09/23 00:47:17;;;;;;;;;;;9.30;99.90;;;;;;5068488;28;19928;-79
2022/09/23 00:49:43;;;;;;;;;;;9.30;99.90;;;;;;5035157;28;19921;-79
2022/09/23 00:52:11;;;;;;;;;;;9.20;99.90;;;;;;5035188;28;19925;-79
2022/09/23 00:54:37;;;;;;;;;;;9.30;99.90;;;;;;5018562;28;19928;-79
2022/09/23 00:57:04;;;;;;;;;;;9.30;99.90;;;;;;5018572;28;20288;-79
2022/09/23 00:59:31;;;;;;;;;;;9.20;99.90;;;;;;5034719;28;19967;-79
2022/09/23 01:01:57;;;;;;;;;;;9.20;99.90;;;;;;5051770;28;19929;-79
2022/09/23 01:04:24;;;;;;;;;;;9.20;99.90;;;;;;5034598;28;19967;-79
2022/09/23 01:06:49;;;;;;;;;;;9.30;99.90;;;;;;5034711;28;19991;-79
2022/09/23 01:09:15;;;;;;;;;;;9.20;99.90;;;;;;5067946;28;20353;-79
2022/09/23 01:11:44;;;;;;;;;;;9.20;99.90;;;;;;5051051;28;19921;-79
2022/09/23 01:14:17;;;;;;;;;;;9.20;99.90;;;;;;5050865;28;19925;-79
2022/09/23 01:16:50;;;;;;;;;;;9.20;99.90;;;;;;5034334;28;20419;-79
2022/09/23 01:19:22;;;;;;;;;;;9.00;99.90;;;;;;5034515;28;19932;-79
2022/09/23 01:21:50;;;;;;;;;;;9.10;99.90;;;;;;5034345;28;19924;-79
2022/09/23 01:24:16;;;;;;;;;;;9.10;99.90;;;;;;5033917;28;19979;-79
2022/09/23 01:26:44;;;;;;;;;;;9.10;99.90;;;;;;5034421;28;19925;-79
2022/09/23 01:29:36;;;;;;;;;;;9.10;99.90;;;;;;5034224;28;20433;-79
2022/09/23 01:32:14;;;;;;;;;;;9.00;99.90;;;;;;5033326;28;19921;-79
2022/09/23 01:34:48;;;;;;;;;;;9.00;99.90;;;;;;5067754;28;19928;-79
2022/09/23 01:37:28;;;;;;;;;;;9.00;99.90;;;;;;5034789;28;19924;-79
2022/09/23 01:40:02;;;;;;;;;;;9.00;99.90;;;;;;5034755;28;19968;-79
2022/09/23 01:42:33;;;;;;;;;;;9.00;99.90;;;;;;5034920;28;19921;-79
2022/09/23 01:45:01;;;;;;;;;;;8.90;99.90;;;;;;5034991;28;19947;-79
2022/09/23 01:47:38;;;;;;;;;;;8.90;99.90;;;;;;5033725;28;20055;-79
2022/09/23 01:53:01;;;;;;;;;;;8.90;99.90;;;;;;5067357;28;19921;-79
2022/09/23 01:55:31;;;;;;;;;;;8.90;99.90;;;;;;5050445;28;19925;-79
2022/09/23 01:58:04;;;;;;;;;;;8.90;99.90;;;;;;5016984;28;19921;-79
2022/09/23 02:00:33;;;;;;;;;;;8.90;99.90;;;;;;5067651;28;19921;-79
2022/09/23 02:03:03;;;;;;;;;;;8.90;99.90;;;;;;5067034;28;20382;-79
2022/09/23 02:05:33;;;;;;;;;;;8.90;99.90;;;;;;5033439;28;20446;-79
2022/09/23 02:08:11;;;;;;;;;;;8.80;99.90;;;;;;5032796;28;19928;-79
2022/09/23 02:10:43;;;;;;;;;;;8.80;99.90;;;;;;5017353;28;19967;-79
2022/09/23 02:13:14;;;;;;;;;;;8.80;99.90;;;;;;5050178;28;19928;-79
2022/09/23 02:15:43;;;;;;;;;;;8.70;99.90;;;;;;5050221;28;19921;-79
2022/09/23 02:18:15;;;;;;;;;;;8.70;99.90;;;;;;5066665;28;19973;-79
2022/09/23 02:20:42;;;;;;;;;;;8.70;99.90;;;;;;5016950;28;20365;-79
2022/09/23 02:23:11;;;;;;;;;;;8.70;99.90;;;;;;5050389;28;20015;-79
2022/09/23 02:25:53;;;;;;;;;;;8.80;99.90;;;;;;5033634;28;19975;-79
2022/09/23 02:28:42;;;;;;;;;;;8.70;99.90;;;;;;5033354;28;19921;-79
2022/09/23 02:31:10;;;;;;;;;;;8.70;99.90;;;;;;5013146;28;19926;-79
2022/09/23 02:33:40;;;;;;;;;;;8.60;99.90;;;;;;4979777;28;19932;-79
2022/09/23 02:36:11;;;;;;;;;;;8.60;99.90;;;;;;4979946;28;19926;-79
2022/09/23 02:38:40;;;;;;;;;;;8.60;99.90;;;;;;4979876;28;19968;-79
2022/09/23 02:41:15;;;;;;;;;;;8.60;99.90;;;;;;4996002;28;20015;-79
2022/09/23 02:43:49;;;;;;;;;;;8.60;99.90;;;;;;5012266;28;20432;-79
2022/09/23 02:46:15;;;;;;;;;;;8.50;99.90;;;;;;4978996;28;19921;-79
2022/09/23 02:48:43;;;;;;;;;;;8.50;99.90;;;;;;4996151;28;19921;-79
2022/09/23 02:51:08;;;;;;;;;;;8.60;99.90;;;;;;4996226;28;19921;-79
2022/09/23 02:53:35;;;;;;;;;;;8.40;99.90;;;;;;4996140;28;20424;-79
2022/09/23 02:56:01;;;;;;;;;;;8.40;99.90;;;;;;4996188;28;19922;-79
2022/09/23 02:58:27;;;;;;;;;;;8.40;99.90;;;;;;5012301;28;19957;-79
2022/09/23 03:01:03;;;;;;;;;;;8.30;99.90;;;;;;5013443;28;19921;-79
2022/09/23 03:03:55;;;;;;;;;;;8.40;99.90;;;;;;4996093;28;19972;-79
2022/09/23 03:06:30;;;;;;;;;;;8.30;99.90;;;;;;4957331;28;19922;-79
2022/09/23 03:09:01;;;;;;;;;;;8.30;99.90;;;;;;4976630;28;19980;-79
2022/09/23 03:11:27;;;;;;;;;;;8.30;99.90;;;;;;4979743;28;19921;-79
2022/09/23 03:14:16;;;;;;;;;;;8.30;99.90;;;;;;4979686;28;20011;-79
2022/09/23 03:17:00;;;;;;;;;;;8.30;99.90;;;;;;4996039;28;19921;-79
2022/09/23 03:19:41;;;;;;;;;;;8.20;99.90;;;;;;4982058;28;20122;-79
2022/09/23 03:22:17;;;;;;;;;;;8.20;99.90;;;;;;4984062;28;19987;-79
2022/09/23 03:24:44;;;;;;;;;;;8.20;99.90;;;;;;4984140;28;19921;-79
2022/09/23 03:27:13;;;;;;;;;;;8.10;99.90;;;;;;5000565;28;20481;-79
2022/09/23 03:29:44;;;;;;;;;;;8.10;99.90;;;;;;4999280;28;20344;-79
2022/09/23 03:32:10;;;;;;;;;;;8.10;99.90;;;;;;4983703;28;20302;-79
2022/09/23 03:34:37;;;;;;;;;;;8.10;99.90;;;;;;4999194;28;19925;-79
2022/09/23 03:37:21;;;;;;;;;;;8.10;99.90;;;;;;4999724;28;19921;-79
2022/09/23 03:39:49;;;;;;;;;;;8.00;99.90;;;;;;4999300;28;19987;-79
2022/09/23 03:42:20;;;;;;;;;;;8.00;99.90;;;;;;4985861;28;19929;-79
2022/09/23 03:44:47;;;;;;;;;;;8.00;99.90;;;;;;5035963;28;19925;-79
2022/09/23 03:47:14;;;;;;;;;;;8.00;99.90;;;;;;5036510;28;19921;-79
2022/09/23 03:49:41;;;;;;;;;;;8.00;99.90;;;;;;5035645;28;20030;-79
2022/09/23 03:52:07;;;;;;;;;;;8.00;99.90;;;;;;5051172;28;20249;-79
2022/09/23 03:54:32;;;;;;;;;;;7.90;99.90;;;;;;5034957;28;19928;-79
2022/09/23 03:56:59;;;;;;;;;;;7.90;99.90;;;;;;5036472;28;20357;-79
2022/09/23 03:59:24;;;;;;;;;;;7.90;99.90;;;;;;5035579;28;19960;-79
2022/09/23 04:01:50;;;;;;;;;;;8.00;99.90;;;;;;5069429;28;19971;-79
2022/09/23 04:04:16;;;;;;;;;;;7.90;99.90;;;;;;5068829;28;20361;-79
2022/09/23 04:06:41;;;;;;;;;;;7.90;99.90;;;;;;5035808;28;19921;-79
2022/09/23 04:09:07;;;;;;;;;;;7.90;99.90;;;;;;5052278;28;19928;-79
2022/09/23 04:11:33;;;;;;;;;;;7.90;99.90;;;;;;5035867;28;19927;-79
2022/09/23 04:13:59;;;;;;;;;;;7.90;99.90;;;;;;5035453;28;19944;-79
2022/09/23 04:16:25;;;;;;;;;;;7.90;99.90;;;;;;5069053;28;19921;-79
2022/09/23 04:18:50;;;;;;;;;;;7.90;99.90;;;;;;5068513;28;19921;-80
2022/09/23 04:21:16;;;;;;;;;;;7.80;99.90;;;;;;5052105;28;19982;-79
2022/09/23 04:23:41;;;;;;;;;;;7.80;99.90;;;;;;5035354;28;19988;-79
2022/09/23 04:26:07;;;;;;;;;;;7.80;99.90;;;;;;5035907;28;19921;-79
2022/09/23 04:28:33;;;;;;;;;;;7.80;99.90;;;;;;5035721;28;19921;-80
2022/09/23 04:30:59;;;;;;;;;;;7.80;99.90;;;;;;5018067;28;19928;-79
2022/09/23 04:33:24;;;;;;;;;;;7.90;99.90;;;;;;5035063;28;20032;-80
2022/09/23 04:35:51;;;;;;;;;;;7.80;99.90;;;;;;5034766;28;19972;-80
2022/09/23 04:38:16;;;;;;;;;;;7.80;99.90;;;;;;5035343;28;20432;-80
2022/09/23 04:40:42;;;;;;;;;;;7.70;99.90;;;;;;5068771;28;19963;-79
2022/09/23 04:43:07;;;;;;;;;;;7.70;99.90;;;;;;5068108;28;20373;-79
2022/09/23 04:45:33;;;;;;;;;;;7.70;99.90;;;;;;5067603;28;19921;-79
2022/09/23 04:47:59;;;;;;;;;;;7.80;99.90;;;;;;5068379;28;19972;-79
2022/09/23 04:50:25;;;;;;;;;;;7.70;99.90;;;;;;5068175;28;19921;-79
2022/09/23 04:52:51;;;;;;;;;;;7.70;99.90;;;;;;5051366;28;19975;-79
2022/09/23 04:55:17;;;;;;;;;;;7.70;99.90;;;;;;5051316;28;20435;-80
2022/09/23 04:57:43;;;;;;;;;;;7.70;99.90;;;;;;5018209;28;19921;-79
2022/09/23 05:00:11;;;;;;;;;;;7.70;99.90;;;;;;5068196;28;20024;-80
2022/09/23 05:02:47;;;;;;;;;;;7.70;99.90;;;;;;5051877;28;19921;-79
2022/09/23 05:05:13;;;;;;;;;;;7.70;99.90;;;;;;5073873;28;19921;-79
2022/09/23 05:07:39;;;;;;;;;;;7.70;99.90;;;;;;5038500;28;19928;-80
2022/09/23 05:10:05;;;;;;;;;;;7.70;99.90;;;;;;5034641;28;19921;-79
2022/09/23 05:12:31;;;;;;;;;;;7.70;99.90;;;;;;5034926;28;20022;-79
2022/09/23 05:14:56;;;;;;;;;;;7.70;99.90;;;;;;5051582;28;19929;-79
2022/09/23 05:17:22;;;;;;;;;;;7.70;99.90;;;;;;5034901;28;19921;-79
2022/09/23 05:19:49;;;;;;;;;;;7.70;99.90;;;;;;5034182;28;19944;-79
2022/09/23 05:22:14;;;;;;;;;;;7.70;99.90;;;;;;5067639;28;19947;-79
2022/09/23 05:24:40;;;;;;;;;;;7.60;99.90;;;;;;5067449;28;19928;-79
2022/09/23 05:27:06;;;;;;;;;;;7.60;99.90;;;;;;5034469;28;19925;-79
2022/09/23 05:29:32;;;;;;;;;;;7.60;99.90;;;;;;5067587;28;20015;-79
2022/09/23 05:31:58;;;;;;;;;;;7.60;99.90;;;;;;5017770;28;19928;-79
2022/09/23 05:34:23;;;;;;;;;;;7.70;99.90;;;;;;5034014;28;19921;-79
2022/09/23 05:36:49;;;;;;;;;;;7.60;99.90;;;;;;5067928;28;19921;-79
2022/09/23 05:39:14;;;;;;;;;;;7.60;99.90;;;;;;5050685;28;20019;-79
2022/09/23 05:41:42;;;;;;;;;;;7.80;99.90;;;;;;5034330;28;19921;-79
2022/09/23 05:44:08;;;;;;;;;;;7.60;99.90;;;;;;5033763;28;19928;-80
2022/09/23 05:46:33;;;;;;;;;;;7.70;99.90;;;;;;5067407;28;20007;-79
2022/09/23 05:49:00;;;;;;;;;;;7.70;99.90;;;;;;5033893;28;19990;-79
2022/09/23 05:51:26;;;;;;;;;;;7.70;99.90;;;;;;5050823;28;19968;-79
2022/09/23 05:53:52;;;;;;;;;;;7.70;99.90;;;;;;5067605;28;19921;-79
2022/09/23 05:56:19;;;;;;;;;;;7.70;99.90;;;;;;5050261;28;20292;-79
2022/09/23 05:58:46;;;;;;;;;;;7.70;99.90;;;;;;5066876;28;19925;-79
2022/09/23 06:01:16;;;;;;;;;;;7.70;99.90;;;;;;5067264;28;20349;-79
2022/09/23 06:03:48;;;;;;;;;;;7.70;99.90;;;;;;5033318;28;20428;-79
2022/09/23 06:06:16;;;;;;;;;;;7.80;99.90;;;;;;5033801;28;19921;-79
2022/09/23 06:08:42;;;;;;;;;;;7.90;99.90;;;;;;5033560;28;19921;-79
2022/09/23 06:11:08;;;;;;;;;;;7.90;99.90;;;;;;5033565;28;19943;-79
2022/09/23 06:13:36;;;;;;;;;;;7.90;99.90;;;;;;5033473;28;20440;-79
2022/09/23 06:16:03;;;;;;;;;;;8.00;99.90;;;;;;5066899;28;19925;-79
2022/09/23 06:18:29;;;;;;;;;;;8.00;99.90;;;;;;5067225;28;19927;-79
2022/09/23 06:20:54;;;;;;;;;;;8.20;99.90;;;;;;5033494;28;19921;-79
2022/09/23 06:23:20;;;;;;;;;;;8.30;99.90;;;;;;5033586;28;19976;-78
2022/09/23 06:25:45;;;;;;;;;;;8.40;99.90;;;;;;5066670;28;19932;-79
2022/09/23 06:28:11;;;;;;;;;;;8.50;99.90;;;;;;5033646;28;19921;-80
2022/09/23 06:30:38;;;;;;;;;;;8.80;99.90;;;;;;5033310;28;20050;-79
2022/09/23 06:33:04;;;;;;;;;;;8.90;99.90;;;;;;5033318;28;20129;-79
2022/09/23 06:35:32;;;;;;;;;;;9.00;99.90;;;;;;5034120;28;19972;-79
2022/09/23 06:37:57;;;;;;;;;;;9.10;99.90;;;;;;5017184;28;19928;-79
2022/09/23 06:40:23;;;;;;;;;;;9.30;99.90;;;;;;5033665;28;19921;-79
2022/09/23 06:42:56;;;;;;;;;;;9.50;99.90;;;;;;5050159;28;19932;-79
2022/09/23 06:45:22;;;;;;;;;;;9.50;99.90;;;;;;5051492;28;20012;-79
2022/09/23 06:47:52;;;;;;;;;;;9.50;99.90;;;;;;5068559;28;19921;-79
2022/09/23 06:50:18;;;;;;;;;;;9.70;99.90;;;;;;5050393;28;20320;-80
2022/09/23 06:52:49;;;;;;;;;;;9.70;99.90;;;;;;5016571;28;20019;-79
2022/09/23 06:55:14;;;;;;;;;;;9.80;99.90;;;;;;5070451;28;19921;-80
2022/09/23 06:57:40;;;;;;;;;;;9.90;99.90;;;;;;5036830;28;20239;-78
2022/09/23 07:00:06;;;;;;;;;;;10.00;99.90;;;;;;5069979;28;19924;-78
2022/09/23 07:02:31;;;;;;;;;;;10.20;99.90;;;;;;5020021;28;19965;-78
2022/09/23 07:04:57;;;;;;;;;;;10.30;99.90;;;;;;5070118;28;19967;-78
2022/09/23 07:07:22;;;;;;;;;;;10.40;99.90;;;;;;5036780;28;19972;-78
2022/09/23 07:09:48;;;;;;;;;;;10.40;99.90;;;;;;5070113;28;19928;-78
2022/09/23 07:12:14;;;;;;;;;;;10.40;99.90;;;;;;5036618;28;19921;-78
2022/09/23 07:14:39;;;;;;;;;;;10.40;99.90;;;;;;5069860;28;19921;-78
2022/09/23 07:17:05;;;;;;;;;;;10.40;99.90;;;;;;5069883;28;20015;-78
2022/09/23 07:19:31;;;;;;;;;;;10.40;99.90;;;;;;5036462;28;19971;-78
2022/09/23 07:21:56;;;;;;;;;;;10.50;99.90;;;;;;5036615;28;19925;-78
2022/09/23 07:24:22;;;;;;;;;;;10.60;99.90;;;;;;5069613;28;19920;-79
2022/09/23 07:26:48;;;;;;;;;;;10.60;99.90;;;;;;5036631;28;19921;-79
2022/09/23 07:29:14;;;;;;;;;;;10.70;99.90;;;;;;5036407;28;19925;-79
2022/09/23 07:31:39;;;;;;;;;;;10.80;99.90;;;;;;5036784;28;19982;-79
2022/09/23 07:34:05;;;;;;;;;;;10.80;99.90;;;;;;5069916;28;19967;-79
2022/09/23 07:36:31;;;;;;;;;;;10.90;99.90;;;;;;5069851;28;20011;-79
2022/09/23 07:39:02;;;;;;;;;;;10.90;99.90;;;;;;5053042;28;19983;-79
2022/09/23 07:41:28;;;;;;;;;;;11.00;99.90;;;;;;5036315;28;20384;-79
2022/09/23 07:43:57;;;;;;;;;;;11.10;99.90;;;;;;5036341;28;19921;-79
2022/09/23 07:46:27;;;;;;;;;;;11.20;99.90;;;;;;5052910;28;19921;-79
2022/09/23 07:48:53;;;;;;;;;;;11.30;99.90;;;;;;5019798;28;19921;-79
2022/09/23 07:51:20;;;;;;;;;;;11.40;99.90;;;;;;5052682;28;19921;-79
2022/09/23 07:53:47;;;;;;;;;;;11.40;99.90;;;;;;5052749;28;19928;-79
2022/09/23 07:56:13;;;;;;;;;;;11.50;99.90;;;;;;5019548;28;19921;-79
2022/09/23 07:58:39;;;;;;;;;;;11.60;99.90;;;;;;5052198;28;20276;-79
2022/09/23 08:01:05;;;;;;;;;;;11.70;99.90;;;;;;5069467;28;19921;-79
2022/09/23 08:03:31;;;;;;;;;;;11.70;99.90;;;;;;5052379;28;19975;-79
2022/09/23 08:06:10;;;;;;;;;;;11.90;99.90;;;;;;5068106;28;19921;-79
2022/09/23 08:08:42;;;;;;;;;;;11.90;99.90;;;;;;5035866;28;19974;-79
2022/09/23 08:11:09;;;;;;;;;;;11.90;99.90;;;;;;5053001;28;19927;-79
2022/09/23 08:13:34;;;;;;;;;;;12.00;99.90;;;;;;5052751;28;19993;-79
2022/09/23 08:16:00;;;;;;;;;;;12.10;99.90;;;;;;5069246;28;20353;-79
2022/09/23 08:18:26;;;;;;;;;;;12.10;99.90;;;;;;5035627;28;19921;-80
2022/09/23 08:20:51;;;;;;;;;;;12.30;99.90;;;;;;5068833;28;19928;-78
2022/09/23 08:23:18;;;;;;;;;;;12.30;99.90;;;;;;5018814;28;19928;-78
2022/09/23 08:25:46;;;;;;;;;;;12.40;99.90;;;;;;5036184;28;20281;-78
2022/09/23 08:28:17;;;;;;;;;;;12.50;99.90;;;;;;5068644;28;19921;-78
2022/09/23 08:30:43;;;;;;;;;;;12.60;99.90;;;;;;5035940;28;19921;-78
2022/09/23 08:33:10;;;;;;;;;;;12.60;99.90;;;;;;5035755;28;19928;-78
2022/09/23 08:35:35;;;;;;;;;;;12.60;99.90;;;;;;5051761;28;20004;-78
2022/09/23 08:38:01;;;;;;;;;;;12.80;99.90;;;;;;5068449;28;19967;-78
2022/09/23 08:40:27;;;;;;;;;;;12.90;99.90;;;;;;5068579;28;20273;-78
2022/09/23 08:42:52;;;;;;;;;;;13.00;99.90;;;;;;5051497;28;19921;-78
2022/09/23 08:45:21;;;;;;;;;;;13.10;99.90;;;;;;5035149;28;19921;-78
2022/09/23 08:48:00;;;;;;;;;;;13.20;99.90;;;;;;5035146;28;19924;-79
2022/09/23 08:50:35;;;;;;;;;;;13.20;99.90;;;;;;5068436;28;19979;-78
2022/09/23 08:53:06;;;;;;;;;;;13.30;99.90;;;;;;5068730;28;19960;-79
2022/09/23 08:55:40;;;;;;;;;;;13.30;99.90;;;;;;5051581;28;19928;-79
2022/09/23 08:58:25;;;;;;;;;;;13.40;99.90;;;;;;5034274;28;19983;-79
2022/09/23 09:01:03;;;;;;;;;;;13.50;99.90;;;;;;5068258;28;19985;-79
2022/09/23 09:03:34;;;;;;;;;;;13.50;99.90;;;;;;5034825;28;19921;-79
2022/09/23 09:06:00;;;;;;;;;;;13.40;99.90;;;;;;5034994;28;19928;-78
2022/09/23 09:08:30;;;;;;;;;;;13.50;99.90;;;;;;5034717;28;19925;-79
2022/09/23 09:10:57;;;;;;;;;;;13.50;99.90;;;;;;5067827;28;19975;-78
2022/09/23 09:13:28;;;;;;;;;;;13.50;99.90;;;;;;5051786;28;19975;-79
2022/09/23 09:16:17;;;;;;;;;;;13.60;99.90;;;;;;5034311;28;19921;-78
2022/09/23 09:18:51;;;;;;;;;;;13.60;99.90;;;;;;5013733;28;19922;-78
2022/09/23 09:21:17;;;;;;;;;;;13.70;99.90;;;;;;4980941;28;19922;-79
2022/09/23 09:23:51;;;;;;;;;;;13.70;99.90;;;;;;5030372;28;20426;-78
2022/09/23 09:26:27;;;;;;;;;;;13.80;99.90;;;;;;4981048;28;20020;-79
2022/09/23 09:28:58;;;;;;;;;;;13.80;99.90;;;;;;4981222;28;19922;-79
2022/09/23 09:31:31;;;;;;;;;;;13.90;99.90;;;;;;4980249;28;19944;-79
2022/09/23 09:34:03;;;;;;;;;;;13.90;99.90;;;;;;4980966;28;20012;-79
2022/09/23 09:36:36;;;;;;;;;;;13.90;99.90;;;;;;4980953;28;19921;-79
2022/09/23 09:39:02;;;;;;;;;;;14.00;99.90;;;;;;4980949;28;19928;-78
2022/09/23 09:41:30;;;;;;;;;;;14.00;99.90;;;;;;4997215;28;19975;-79
2022/09/23 09:43:59;;;;;;;;;;;14.10;99.90;;;;;;5029825;28;19926;-79
2022/09/23 09:46:32;;;;;;;;;;;14.20;99.90;;;;;;4996994;28;19921;-79
2022/09/23 09:49:04;;;;;;;;;;;14.20;99.90;;;;;;4996766;28;20404;-78
2022/09/23 09:51:30;;;;;;;;;;;14.30;99.90;;;;;;5030179;28;19928;-79
2022/09/23 09:54:13;;;;;;;;;;;14.50;99.90;;;;;;4996811;28;19926;-79
2022/09/23 09:56:40;;;;;;;;;;;14.70;99.90;;;;;;5046131;28;19964;-79
2022/09/23 09:59:10;;;;;;;;;;;14.80;99.90;;;;;;5017084;28;19975;-79
2022/09/23 10:01:36;;;;;;;;;;;15.00;99.90;;;;;;5067086;28;20403;-79
2022/09/23 10:04:20;;;;;;;;;;;15.20;99.90;;;;;;5066803;28;19968;-79
2022/09/23 10:07:04;;;;;;;;;;;15.40;99.90;;;;;;5033955;28;20528;-79
2022/09/23 10:09:32;;;;;;;;;;;15.50;99.90;;;;;;5033720;28;19925;-79
2022/09/23 10:12:21;;;;;;;;;;;15.50;99.90;;;;;;5017399;28;19921;-79
2022/09/23 10:14:50;;;;;;;;;;;15.50;99.90;;;;;;5029475;28;19937;-79
2022/09/23 10:17:20;;;;;;;;;;;15.50;99.90;;;;;;4996810;28;19925;-79
2022/09/23 10:19:49;;;;;;;;;;;15.50;99.90;;;;;;4996228;28;19922;-79
2022/09/23 10:22:23;;;;;;;;;;;15.40;99.90;;;;;;4980056;28;19921;-79
2022/09/23 10:24:51;;;;;;;;;;;15.30;99.90;;;;;;4996106;28;19921;-79
2022/09/23 10:27:24;;;;;;;;;;;15.30;99.90;;;;;;4996475;28;19945;-79
2022/09/23 10:29:50;;;;;;;;;;;15.20;99.90;;;;;;4996005;28;19936;-79
2022/09/23 10:32:16;;;;;;;;;;;15.10;99.90;;;;;;4980145;28;19925;-79
2022/09/23 10:34:42;;;;;;;;;;;15.00;99.90;;;;;;4997454;28;19921;-79
2022/09/23 10:37:15;;;;;;;;;;;15.10;99.90;;;;;;4996907;28;20420;-79
2022/09/23 10:48:15;;;;;;;;;;;15.10;99.90;;;;;;4996791;28;19928;-79
2022/09/23 10:50:44;;;;;;;;;;;15.20;99.90;;;;;;4981576;28;20023;-79
2022/09/23 10:53:27;;;;;;;;;;;15.20;99.90;;;;;;5033305;28;20387;-80
2022/09/23 10:55:55;;;;;;;;;;;15.30;99.90;;;;;;5033315;28;19921;-80
2022/09/23 10:58:39;;;;;;;;;;;15.30;99.90;;;;;;5050155;28;19965;-80
2022/09/23 11:01:08;;;;;;;;;;;15.40;99.90;;;;;;5066864;28;19921;-80
2022/09/23 11:03:57;;;;;;;;;;;15.50;99.90;;;;;;5049714;28;20019;-80
2022/09/23 11:06:31;;;;;;;;;;;15.60;99.90;;;;;;5017454;28;19928;-80
2022/09/23 11:09:04;;;;;;;;;;;15.70;99.90;;;;;;5033417;28;19928;-80
2022/09/23 11:11:38;;;;;;;;;;;15.80;99.90;;;;;;5050117;28;19929;-80
2022/09/23 11:14:15;;;;;;;;;;;15.80;99.90;;;;;;5049870;28;19971;-80
2022/09/23 11:16:47;;;;;;;;;;;15.90;99.90;;;;;;5067199;28;19944;-80
2022/09/23 11:19:16;;;;;;;;;;;16.10;99.90;;;;;;5033623;28;19929;-80
2022/09/23 11:21:57;;;;;;;;;;;16.30;99.90;;;;;;5033537;28;19928;-80
2022/09/23 11:24:22;;;;;;;;;;;16.40;99.90;;;;;;5032944;28;20403;-80
2022/09/23 11:27:06;;;;;;;;;;;16.40;99.90;;;;;;5033557;28;19921;-80
2022/09/23 11:29:50;;;;;;;;;;;16.40;99.90;;;;;;5033513;28;20356;-80
2022/09/23 11:32:16;;;;;;;;;;;16.40;99.90;;;;;;5033826;28;19925;-80
2022/09/23 11:34:49;;;;;;;;;;;16.40;99.90;;;;;;5032887;28;20306;-80
2022/09/23 11:37:17;;;;;;;;;;;16.30;99.90;;;;;;5032963;28;20472;-80
2022/09/23 11:39:46;;;;;;;;;;;16.40;99.90;;;;;;5050552;28;19927;-80
2022/09/23 11:42:27;;;;;;;;;;;16.40;99.90;;;;;;5070215;28;20319;-80
2022/09/23 11:45:13;;;;;;;;;;;16.30;99.90;;;;;;5053089;28;20011;-80
2022/09/23 11:47:42;;;;;;;;;;;16.30;99.90;;;;;;5036389;28;19921;-80
2022/09/23 11:50:26;;;;;;;;;;;16.30;99.90;;;;;;5020636;28;19921;-80
2022/09/23 11:52:57;;;;;;;;;;;16.30;99.90;;;;;;5053180;28;19920;-81
2022/09/23 11:55:25;;;;;;;;;;;16.30;99.90;;;;;;5036379;28;20361;-80
2022/09/23 11:58:10;;;;;;;;;;;16.30;99.90;;;;;;5035856;28;19921;-80
2022/09/23 12:00:37;;;;;;;;;;;16.30;99.90;;;;;;5070342;28;19921;-80
2022/09/23 12:03:16;;;;;;;;;;;16.30;99.90;;;;;;5036357;28;20337;-80
2022/09/23 12:06:02;;;;;;;;;;;16.30;99.90;;;;;;5036155;28;19921;-80
2022/09/23 12:08:31;;;;;;;;;;;16.30;99.90;;;;;;5019366;28;20361;-80
2022/09/23 12:11:12;;;;;;;;;;;16.30;99.90;;;;;;5037300;28;19925;-80
2022/09/23 12:13:43;;;;;;;;;;;16.30;99.90;;;;;;5052679;28;19921;-80
2022/09/23 12:16:24;;;;;;;;;;;16.30;99.90;;;;;;5036067;28;19927;-80
2022/09/23 12:18:50;;;;;;;;;;;16.30;99.90;;;;;;5035965;28;19921;-80
2022/09/23 12:21:36;;;;;;;;;;;16.30;99.90;;;;;;5052856;28;19925;-79
2022/09/23 12:24:15;;;;;;;;;;;16.40;99.90;;;;;;5014879;28;19921;-79
2022/09/23 12:26:41;;;;;;;;;;;16.30;99.90;;;;;;5015301;28;19937;-81
2022/09/23 12:29:10;;;;;;;;;;;16.40;99.90;;;;;;5031787;28;20011;-80
2022/09/23 12:31:37;;;;;;;;;;;16.30;99.90;;;;;;4982079;28;19926;-80
2022/09/23 12:34:06;;;;;;;;;;;16.30;99.90;;;;;;4982365;28;19921;-80
2022/09/23 12:36:33;;;;;;;;;;;16.40;99.90;;;;;;4982383;28;20281;-80
2022/09/23 12:39:01;;;;;;;;;;;16.30;99.90;;;;;;4982575;28;19980;-80
2022/09/23 12:41:36;;;;;;;;;;;16.30;99.90;;;;;;4998465;28;20325;-80
2022/09/23 12:44:14;;;;;;;;;;;16.30;99.90;;;;;;5031424;28;20108;-81
2022/09/23 12:46:40;;;;;;;;;;;16.30;99.90;;;;;;4998339;28;19921;-81
2022/09/23 12:49:30;;;;;;;;;;;16.30;99.90;;;;;;4998591;28;20413;-81
2022/09/23 12:52:14;;;;;;;;;;;16.30;99.90;;;;;;4998216;28;19925;-81
2022/09/23 12:54:41;;;;;;;;;;;16.30;99.90;;;;;;4998183;28;19931;-81
2022/09/23 12:57:10;;;;;;;;;;;16.20;99.90;;;;;;4981823;28;19925;-81
2022/09/23 12:59:56;;;;;;;;;;;16.20;99.90;;;;;;4981968;28;20340;-80
2022/09/23 13:02:40;;;;;;;;;;;16.20;99.90;;;;;;5052164;28;19932;-80
2022/09/23 13:08:14;;;;;;;;;;;16.20;99.90;;;;;;5068333;28;19921;-81
2022/09/23 13:10:43;;;;;;;;;;;16.20;99.90;;;;;;5035176;28;19960;-81
2022/09/23 13:13:17;;;;;;;;;;;16.30;99.90;;;;;;5068509;28;19921;-81
2022/09/23 13:15:43;;;;;;;;;;;16.20;99.90;;;;;;5034971;28;19921;-81
2022/09/23 13:18:19;;;;;;;;;;;16.20;99.90;;;;;;5035050;28;19928;-80
2022/09/23 13:20:45;;;;;;;;;;;16.20;99.90;;;;;;5035155;28;19921;-81
2022/09/23 13:23:18;;;;;;;;;;;16.20;99.90;;;;;;5034585;28;19928;-80
2022/09/23 13:25:44;;;;;;;;;;;16.30;99.90;;;;;;5051823;28;19964;-80
2022/09/23 13:28:25;;;;;;;;;;;16.30;99.90;;;;;;5068341;28;19967;-81
2022/09/23 13:30:51;;;;;;;;;;;16.30;99.90;;;;;;5035083;28;20361;-81
2022/09/23 13:33:25;;;;;;;;;;;16.40;99.90;;;;;;5034586;28;19925;-81
2022/09/23 13:35:51;;;;;;;;;;;16.40;99.90;;;;;;5068302;28;19921;-81
2022/09/23 13:38:19;;;;;;;;;;;16.40;99.90;;;;;;5051325;28;19921;-80
2022/09/23 13:40:45;;;;;;;;;;;16.40;99.90;;;;;;5034762;28;19928;-80
2022/09/23 13:43:18;;;;;;;;;;;16.40;99.90;;;;;;5051294;28;19975;-81
2022/09/23 13:45:43;;;;;;;;;;;16.40;99.90;;;;;;5018509;28;19928;-81
2022/09/23 13:48:15;;;;;;;;;;;16.40;99.90;;;;;;5034453;28;19921;-80
2022/09/23 13:50:47;;;;;;;;;;;16.40;99.90;;;;;;5051355;28;19921;-80
2022/09/23 13:53:18;;;;;;;;;;;16.40;99.90;;;;;;5067013;28;20369;-81
2022/09/23 13:55:44;;;;;;;;;;;16.40;99.90;;;;;;5050866;28;19928;-81
2022/09/23 13:58:16;;;;;;;;;;;16.40;99.90;;;;;;5050767;28;19921;-80
2022/09/23 14:00:41;;;;;;;;;;;16.40;99.90;;;;;;5067534;28;20343;-80
2022/09/23 14:03:26;;;;;;;;;;;16.40;99.90;;;;;;5033658;28;19979;-80
2022/09/23 14:05:52;;;;;;;;;;;16.40;99.90;;;;;;5034503;28;19928;-80
2022/09/23 14:08:18;;;;;;;;;;;16.50;99.90;;;;;;5017821;28;20324;-81
2022/09/23 14:10:45;;;;;;;;;;;16.60;99.90;;;;;;5034222;28;19999;-81
2022/09/23 14:13:13;;;;;;;;;;;16.60;99.90;;;;;;5050375;28;19921;-80
2022/09/23 14:15:39;;;;;;;;;;;16.60;99.90;;;;;;5051145;28;19921;-81
2022/09/23 14:18:05;;;;;;;;;;;16.50;99.90;;;;;;5067626;28;20383;-81
2022/09/23 14:20:30;;;;;;;;;;;16.60;99.90;;;;;;5067179;28;19935;-80
2022/09/23 14:23:06;;;;;;;;;;;16.50;99.90;;;;;;5017496;28;19924;-80
2022/09/23 14:25:31;;;;;;;;;;;16.60;99.90;;;;;;5034009;28;20411;-81
2022/09/23 14:27:57;;;;;;;;;;;16.60;99.90;;;;;;5067827;28;19921;-81
2022/09/23 14:30:23;;;;;;;;;;;16.50;99.90;;;;;;5017333;28;20340;-81
2022/09/23 14:32:48;;;;;;;;;;;16.60;99.90;;;;;;5033740;28;19927;-81
2022/09/23 14:35:17;;;;;;;;;;;16.60;99.90;;;;;;5050198;28;20369;-81
2022/09/23 14:40:30;;;;;;;;;;;16.50;99.90;;;;;;5067963;28;19987;-81
2022/09/23 14:43:14;;;;;;;;;;;16.50;99.90;;;;;;5033994;28;19921;-81
2022/09/23 14:45:42;;;;;;;;;;;16.50;99.90;;;;;;5033594;28;19921;-81
2022/09/23 14:48:11;;;;;;;;;;;16.50;99.90;;;;;;5033064;28;20319;-81
2022/09/23 14:50:45;;;;;;;;;;;16.40;99.90;;;;;;5066758;28;19983;-81
2022/09/23 14:53:17;;;;;;;;;;;16.30;99.90;;;;;;5033384;28;19921;-81
2022/09/23 14:55:44;;;;;;;;;;;16.30;99.90;;;;;;5034097;28;19990;-81